LPCS Airport Information

Runway Information
Runway 17 Length 3904 ft width 98 ft
Elevation 326 ft Threshold 0 ft Heading 164
Runway 35 Length 3904 ft Width 98 ft
Elevation 287 ft Threshold 0 ft Heading 344
Airport Frequencies
Type GND Name GND Frequency 121.825 MHZ
Type TWR Name TWR Frequency 120.3 MHZ
Airport Navaids
Type NDB Name Cascais Frequency 359 KHZ
Type VOR-DME Name Cascais Frequency 114300 KHZ
Airport Weather Information & NOTAM
ADDS - METARS form results

(0809 UTC 22 May 2018)
 
METAR text: LPCS 220800Z 15008KT 9999 FEW015 BKN020 15/12 Q1014
Conditions at: LPCS (CASCAIS , PT) observed 0800 UTC 22 May 2018
Temperature: 15.0°C (59°F)
Dewpoint: 12.0°C (54°F) [RH = 82%]
Pressure (altimeter): 29.94 inches Hg (1014.0 mb)
Winds: from the SSE (150 degrees) at 9 MPH (8 knots; 4.2 m/s)
Visibility: 6 or more miles (10+ km)
Ceiling: 2000 feet AGL
Clouds: few clouds at 1500 feet AGL
broken clouds at 2000 feet AGL
Weather: no significant weather observed at this time

METAR text: LPCS 220730Z 14010KT 9999 FEW015 BKN020 15/12 Q1013
Conditions at: LPCS (CASCAIS , PT) observed 0730 UTC 22 May 2018
Temperature: 15.0°C (59°F)
Dewpoint: 12.0°C (54°F) [RH = 82%]
Pressure (altimeter): 29.91 inches Hg (1013.0 mb)
Winds: from the SE (140 degrees) at 12 MPH (10 knots; 5.2 m/s)
Visibility: 6 or more miles (10+ km)
Ceiling: 2000 feet AGL
Clouds: few clouds at 1500 feet AGL
broken clouds at 2000 feet AGL
Weather: no significant weather observed at this time